sensor_id;sensor_type;location;lat;lon;timestamp;pressure;altitude;pressure_sealevel;temperature;humidity
31011;BME280;26395;53.412;19.598;2023-03-11T00:03:08;97490.13;;;5.82;85.64
31011;BME280;26395;53.412;19.598;2023-03-11T00:18:12;97478.02;;;5.88;85.72
31011;BME280;26395;53.412;19.598;2023-03-11T00:33:15;97451.36;;;5.91;85.40
31011;BME280;26395;53.412;19.598;2023-03-11T00:48:18;97437.08;;;5.91;85.94
31011;BME280;26395;53.412;19.598;2023-03-11T01:03:22;97420.38;;;5.93;84.78
31011;BME280;26395;53.412;19.598;2023-03-11T01:18:25;97403.85;;;5.89;85.55
31011;BME280;26395;53.412;19.598;2023-03-11T01:33:29;97405.86;;;5.79;84.53
31011;BME280;26395;53.412;19.598;2023-03-11T01:48:32;97399.21;;;5.73;84.25
31011;BME280;26395;53.412;19.598;2023-03-11T02:03:39;97394.02;;;5.67;84.52
31011;BME280;26395;53.412;19.598;2023-03-11T02:18:43;97386.11;;;5.59;84.63
31011;BME280;26395;53.412;19.598;2023-03-11T02:33:48;97385.98;;;5.49;84.77
31011;BME280;26395;53.412;19.598;2023-03-11T02:48:53;97397.87;;;5.42;84.28
31011;BME280;26395;53.412;19.598;2023-03-11T03:03:58;97404.29;;;5.34;83.91
31011;BME280;26395;53.412;19.598;2023-03-11T03:19:03;97415.04;;;5.19;83.68
31011;BME280;26395;53.412;19.598;2023-03-11T03:34:07;97428.76;;;5.15;84.31
31011;BME280;26395;53.412;19.598;2023-03-11T03:49:11;97441.16;;;4.95;84.72
31011;BME280;26395;53.412;19.598;2023-03-11T04:04:15;97458.71;;;4.84;83.90
31011;BME280;26395;53.412;19.598;2023-03-11T04:19:20;97455.24;;;4.74;83.68
31011;BME280;26395;53.412;19.598;2023-03-11T04:34:23;97465.59;;;4.61;83.33
31011;BME280;26395;53.412;19.598;2023-03-11T04:49:27;97490.11;;;4.52;83.58
31011;BME280;26395;53.412;19.598;2023-03-11T05:04:33;97504.37;;;4.48;83.72
31011;BME280;26395;53.412;19.598;2023-03-11T05:19:37;97513.27;;;4.44;83.27
31011;BME280;26395;53.412;19.598;2023-03-11T05:34:48;97537.27;;;4.33;83.25
31011;BME280;26395;53.412;19.598;2023-03-11T05:49:52;97553.05;;;4.18;83.40
31011;BME280;26395;53.412;19.598;2023-03-11T06:04:55;97558.04;;;4.12;83.23
31011;BME280;26395;53.412;19.598;2023-03-11T06:19:59;97580.71;;;4.00;83.08
31011;BME280;26395;53.412;19.598;2023-03-11T06:35:03;97609.54;;;3.94;82.75
31011;BME280;26395;53.412;19.598;2023-03-11T06:50:09;97644.34;;;3.95;82.96
31011;BME280;26395;53.412;19.598;2023-03-11T07:05:13;97692.92;;;4.03;82.44
31011;BME280;26395;53.412;19.598;2023-03-11T07:20:16;97723.05;;;4.10;82.28
31011;BME280;26395;53.412;19.598;2023-03-11T07:35:20;97744.34;;;4.20;82.02
31011;BME280;26395;53.412;19.598;2023-03-11T07:50:24;97770.63;;;4.33;81.94
31011;BME280;26395;53.412;19.598;2023-03-11T08:05:32;97809.48;;;4.38;81.49
31011;BME280;26395;53.412;19.598;2023-03-11T08:20:37;97846.95;;;4.50;81.27
31011;BME280;26395;53.412;19.598;2023-03-11T08:35:40;97875.67;;;4.37;80.57
31011;BME280;26395;53.412;19.598;2023-03-11T08:50:44;97903.52;;;4.29;80.70
31011;BME280;26395;53.412;19.598;2023-03-11T09:05:57;97957.73;;;4.25;80.81
31011;BME280;26395;53.412;19.598;2023-03-11T09:21:01;97989.31;;;3.99;80.52
31011;BME280;26395;53.412;19.598;2023-03-11T09:36:05;98025.31;;;4.02;79.95
31011;BME280;26395;53.412;19.598;2023-03-11T09:51:13;98056.65;;;4.00;79.81
31011;BME280;26395;53.412;19.598;2023-03-11T10:06:28;98093.69;;;4.00;79.28
31011;BME280;26395;53.412;19.598;2023-03-11T10:37:39;98162.79;;;4.01;78.55
31011;BME280;26395;53.412;19.598;2023-03-11T10:53:07;98191.83;;;3.94;77.92
31011;BME280;26395;53.412;19.598;2023-03-11T11:08:14;98221.60;;;3.97;77.48
31011;BME280;26395;53.412;19.598;2023-03-11T11:23:30;98250.05;;;3.91;77.39
31011;BME280;26395;53.412;19.598;2023-03-11T11:38:34;98293.96;;;3.93;77.02
31011;BME280;26395;53.412;19.598;2023-03-11T11:53:50;98320.38;;;3.65;77.22
31011;BME280;26395;53.412;19.598;2023-03-11T12:09:16;98343.02;;;3.53;77.16
31011;BME280;26395;53.412;19.598;2023-03-11T12:39:58;98393.92;;;4.18;75.72
31011;BME280;26395;53.412;19.598;2023-03-11T13:10:36;98458.45;;;4.28;74.04
31011;BME280;26395;53.412;19.598;2023-03-11T13:41:23;98534.58;;;3.93;72.68
31011;BME280;26395;53.412;19.598;2023-03-11T13:56:32;98554.45;;;4.38;71.91
31011;BME280;26395;53.412;19.598;2023-03-11T14:11:36;98586.08;;;4.33;70.27
31011;BME280;26395;53.412;19.598;2023-03-11T14:26:42;98620.09;;;4.12;69.51
31011;BME280;26395;53.412;19.598;2023-03-11T14:41:46;98661.37;;;4.03;68.91
31011;BME280;26395;53.412;19.598;2023-03-11T14:57:03;98679.13;;;4.13;68.56
31011;BME280;26395;53.412;19.598;2023-03-11T15:12:29;98708.15;;;4.16;69.00
31011;BME280;26395;53.412;19.598;2023-03-11T15:27:35;98732.63;;;4.11;69.59
31011;BME280;26395;53.412;19.598;2023-03-11T15:42:45;98757.42;;;3.75;70.64
31011;BME280;26395;53.412;19.598;2023-03-11T15:58:04;98778.86;;;3.75;70.69
31011;BME280;26395;53.412;19.598;2023-03-11T16:13:13;98807.45;;;4.14;69.32
31011;BME280;26395;53.412;19.598;2023-03-11T16:28:17;98849.69;;;4.65;67.82
31011;BME280;26395;53.412;19.598;2023-03-11T16:43:21;98881.68;;;4.70;66.65
31011;BME280;26395;53.412;19.598;2023-03-11T16:58:25;98900.92;;;3.67;66.17
31011;BME280;26395;53.412;19.598;2023-03-11T17:13:28;98929.42;;;3.33;66.22
31011;BME280;26395;53.412;19.598;2023-03-11T17:28:33;98963.48;;;3.15;66.09
31011;BME280;26395;53.412;19.598;2023-03-11T17:43:37;98986.15;;;3.01;65.25
31011;BME280;26395;53.412;19.598;2023-03-11T17:58:40;98998.43;;;2.99;64.21
31011;BME280;26395;53.412;19.598;2023-03-11T18:13:44;99022.54;;;2.84;64.27
31011;BME280;26395;53.412;19.598;2023-03-11T18:28:51;99039.61;;;2.66;65.55
31011;BME280;26395;53.412;19.598;2023-03-11T18:43:55;99049.31;;;2.46;66.37
31011;BME280;26395;53.412;19.598;2023-03-11T18:59:01;99063.53;;;2.26;67.13
31011;BME280;26395;53.412;19.598;2023-03-11T19:14:06;99078.02;;;2.07;68.30
31011;BME280;26395;53.412;19.598;2023-03-11T19:29:12;99103.66;;;1.96;69.84
31011;BME280;26395;53.412;19.598;2023-03-11T19:44:16;99131.42;;;2.01;70.16
31011;BME280;26395;53.412;19.598;2023-03-11T19:59:19;99144.02;;;2.13;71.21
31011;BME280;26395;53.412;19.598;2023-03-11T20:14:24;99146.10;;;2.37;72.43
31011;BME280;26395;53.412;19.598;2023-03-11T20:29:27;99157.40;;;2.26;72.60
31011;BME280;26395;53.412;19.598;2023-03-11T20:44:31;99180.83;;;2.02;72.78
31011;BME280;26395;53.412;19.598;2023-03-11T20:59:34;99179.45;;;1.95;72.69
31011;BME280;26395;53.412;19.598;2023-03-11T21:14:37;99184.73;;;1.81;74.59
31011;BME280;26395;53.412;19.598;2023-03-11T21:29:41;99178.79;;;1.69;75.20
31011;BME280;26395;53.412;19.598;2023-03-11T21:44:45;99160.25;;;1.61;75.46
31011;BME280;26395;53.412;19.598;2023-03-11T21:59:49;99164.36;;;1.48;75.35
31011;BME280;26395;53.412;19.598;2023-03-11T22:14:52;99158.09;;;1.34;75.98
31011;BME280;26395;53.412;19.598;2023-03-11T22:29:55;99159.13;;;1.28;75.53
31011;BME280;26395;53.412;19.598;2023-03-11T22:44:59;99154.86;;;1.36;75.64
31011;BME280;26395;53.412;19.598;2023-03-11T23:00:06;99152.91;;;1.54;75.00
31011;BME280;26395;53.412;19.598;2023-03-11T23:15:13;99148.53;;;1.78;74.05
31011;BME280;26395;53.412;19.598;2023-03-11T23:30:18;99144.82;;;1.97;74.26
31011;BME280;26395;53.412;19.598;2023-03-11T23:45:21;99133.58;;;2.19;73.45
